logo tempoitalia

Diretta Meteo Hutchinson, Stati Uniti (USA)lunedì 31 agosto ore 00:52

Mappa
Sereno 29 °C Sereno 24 Ore: T.min 26 T.max 41
Ponente Sud Km/h 14.8 Punto di rugiada: 15 °C Umidità: 42% Visibilità: 10 Km
Il sole sorge alle: 07:00 Il sole tramonta alle: 20:02
31 Agosto 2026 00:52 tempo osservato: Sereno Sereno 29 42 1012 vento: Nord S 14.8
30 Agosto 2026 23:52 tempo osservato: Sereno Sereno 30 37 1011 vento: Nord S/SE 18.5
30 Agosto 2026 22:52 tempo osservato: Sereno Sereno 32 33 1011 vento: Nord S/SE 20.3
30 Agosto 2026 21:52 tempo osservato: Sereno Sereno 32 35 1011 vento: Nord S/SE 20.3
30 Agosto 2026 20:52 tempo osservato: Sereno Sereno 34 34 1010 vento: Nord S/SE 18.5
30 Agosto 2026 19:52 tempo osservato: Sereno Sereno 37 27 1009 vento: Nord S 25.9
30 Agosto 2026 18:52 tempo osservato: Sereno Sereno 39 22 1009 vento: Nord S 27.8
30 Agosto 2026 17:52 tempo osservato: Sereno Sereno 41 20 1009 vento: Nord N 0
30 Agosto 2026 16:52 tempo osservato: Sereno Sereno 41 20 1009 vento: Nord S 33.3
30 Agosto 2026 15:52 tempo osservato: Sereno Sereno 41 21 1009 vento: Nord S/SO 31.5
30 Agosto 2026 14:52 tempo osservato: Sereno Sereno 41 23 1010 vento: Nord S 24
30 Agosto 2026 13:52 tempo osservato: Sereno Sereno 39 26 1011 vento: Nord S/SO 29.6
30 Agosto 2026 12:52 tempo osservato: Sereno Sereno 38 29 1011 vento: Nord S 31.5
30 Agosto 2026 11:52 tempo osservato: Sereno Sereno 36 30 1012 vento: Nord S 35.2
30 Agosto 2026 10:52 tempo osservato: Sereno Sereno 34 34 1011 vento: Nord S 33.3
30 Agosto 2026 09:52 tempo osservato: Sereno Sereno 31 40 1012 vento: Nord S 31.5
30 Agosto 2026 08:52 tempo osservato: Sereno Sereno 28 48 1012 vento: Nord S 29.6
30 Agosto 2026 07:52 tempo osservato: Sereno Sereno 26 50 1012 vento: Nord S/SE 18.5
30 Agosto 2026 06:52 tempo osservato: Sereno Sereno 26 47 1012 vento: Nord S/SE 16.7
30 Agosto 2026 05:52 tempo osservato: Sereno Sereno 26 47 1012 vento: Nord S/SE 16.7
30 Agosto 2026 04:52 tempo osservato: Sereno Sereno 27 44 1012 vento: Nord S 16.7
30 Agosto 2026 03:52 tempo osservato: Sereno Sereno 28 42 1012 vento: Nord S 16.7
30 Agosto 2026 02:52 tempo osservato: Sereno Sereno 28 42 1012 vento: Nord S 20.3
30 Agosto 2026 01:52 tempo osservato: Sereno Sereno 29 42 1012 vento: Nord S 25.9